createdAt,value
2023-04-20T00:01:07.792Z,65.51
2023-04-20T00:06:09.448Z,66.79
2023-04-20T00:11:11.132Z,70.09
2023-04-20T00:16:15.399Z,70.10
2023-04-20T00:21:24.083Z,71.23
2023-04-20T00:26:28.024Z,71.17
2023-04-20T00:31:31.646Z,72.04
2023-04-20T00:36:35.672Z,72.64
2023-04-20T00:41:40.003Z,71.71
2023-04-20T00:46:43.864Z,72.24
2023-04-20T00:51:45.595Z,73.27
2023-04-20T00:56:49.734Z,73.23
2023-04-20T01:01:53.984Z,72.58
2023-04-20T01:06:58.850Z,70.15
2023-04-20T01:12:04.957Z,66.58
2023-04-20T01:17:09.667Z,63.40
2023-04-20T01:22:19.577Z,61.54
2023-04-20T01:27:21.319Z,61.51
2023-04-20T01:32:23.182Z,59.78
2023-04-20T01:37:27.476Z,57.33
2023-04-20T01:42:31.452Z,56.82
2023-04-20T01:47:34.223Z,59.18
2023-04-20T01:52:36.147Z,61.84
2023-04-20T01:57:42.174Z,64.11
2023-04-20T02:02:44.080Z,64.18
2023-04-20T02:07:45.912Z,63.69
2023-04-20T02:12:50.293Z,60.80
2023-04-20T02:17:52.552Z,60.08
2023-04-20T02:22:56.749Z,58.80
2023-04-20T02:27:58.550Z,59.39
2023-04-20T02:33:02.552Z,58.30
2023-04-20T02:38:09.191Z,58.49
2023-04-20T02:43:13.521Z,58.07
2023-04-20T02:48:19.494Z,59.13
2023-04-20T02:53:21.561Z,57.70
2023-04-20T02:58:35.029Z,57.39
2023-04-20T03:04:02.797Z,58.25
2023-04-20T03:09:09.501Z,58.39
2023-04-20T03:14:31.461Z,58.83
2023-04-20T03:19:36.707Z,58.45
2023-04-20T03:24:43.948Z,57.90
2023-04-20T03:29:58.876Z,58.53
2023-04-20T03:35:02.963Z,59.62
2023-04-20T03:40:11.146Z,58.90
2023-04-20T03:45:15.684Z,58.68
2023-04-20T03:50:21.986Z,61.90
2023-04-20T03:55:26.514Z,62.75
2023-04-20T04:00:36.638Z,62.79
2023-04-20T04:05:44.194Z,63.30
2023-04-20T04:10:45.951Z,62.90
2023-04-20T04:15:50.043Z,63.80
2023-04-20T04:20:54.571Z,64.83
2023-04-20T04:25:58.773Z,65.08
2023-04-20T04:31:06.083Z,65.72
2023-04-20T04:36:09.478Z,65.89
2023-04-20T04:41:14.513Z,66.42
2023-04-20T04:46:21.607Z,66.69
2023-04-20T04:51:25.903Z,67.85
2023-04-20T04:56:28.515Z,66.97
2023-04-20T05:01:32.508Z,67.23
2023-04-20T05:06:36.534Z,66.61
2023-04-20T05:11:45.485Z,64.53
2023-04-20T05:16:47.293Z,65.10
2023-04-20T05:21:49.140Z,65.76
2023-04-20T05:26:50.829Z,66.71
2023-04-20T05:31:52.547Z,66.91
2023-04-20T05:36:58.786Z,66.85
2023-04-20T05:42:03.055Z,68.36
2023-04-20T05:47:09.837Z,69.49
2023-04-20T05:52:13.816Z,71.64
2023-04-20T05:57:15.661Z,74.15
2023-04-20T06:02:19.468Z,76.37
2023-04-20T06:07:25.954Z,77.39
2023-04-20T06:12:30.805Z,79.95
2023-04-20T06:17:35.256Z,81.96
2023-04-20T06:22:39.785Z,81.37
2023-04-20T06:27:46.644Z,81.18
2023-04-20T06:32:48.384Z,80.82
2023-04-20T06:37:50.049Z,81.52
2023-04-20T06:42:51.722Z,82.58
2023-04-20T06:47:55.276Z,83.01
2023-04-20T06:52:59.349Z,82.73
2023-04-20T06:58:01.343Z,83.02
2023-04-20T07:03:05.420Z,83.00
2023-04-20T07:08:09.682Z,83.05
2023-04-20T07:13:16.505Z,83.61
2023-04-20T07:18:20.528Z,84.63
2023-04-20T07:23:24.531Z,86.09
2023-04-20T07:28:26.305Z,87.32
2023-04-20T07:33:29.861Z,87.24
2023-04-20T07:38:34.063Z,88.21
2023-04-20T07:43:35.792Z,88.86
2023-04-20T07:48:37.560Z,90.23
2023-04-20T07:53:42.238Z,91.09
2023-04-20T07:58:46.610Z,90.87
2023-04-20T08:03:50.826Z,92.57
2023-04-20T08:08:54.814Z,92.26
2023-04-20T08:14:01.916Z,92.85
2023-04-20T08:24:21.884Z,93.30
2023-04-20T08:29:23.544Z,93.36
2023-04-20T08:34:27.796Z,94.41
2023-04-20T08:39:30.470Z,94.44
2023-04-20T08:44:35.028Z,95.19
2023-04-20T08:49:41.302Z,96.19
2023-04-20T08:54:56.093Z,96.78
2023-04-20T09:00:07.926Z,97.16
2023-04-20T09:05:12.303Z,98.34
2023-04-20T09:10:16.309Z,98.44
2023-04-20T09:15:28.382Z,98.11
2023-04-20T09:20:31.942Z,98.42
2023-04-20T09:25:38.741Z,97.97
2023-04-20T09:30:45.770Z,99.66
2023-04-20T09:35:49.993Z,99.65
2023-04-20T09:40:54.033Z,100.00
2023-04-20T09:45:58.106Z,100.00
2023-04-20T09:51:03.314Z,100.00
2023-04-20T09:56:07.875Z,100.00
2023-04-20T10:01:11.041Z,100.00
2023-04-20T10:06:24.568Z,100.00
2023-04-20T10:11:48.811Z,100.00
2023-04-20T10:17:02.449Z,100.00
2023-04-20T10:22:06.846Z,100.00
2023-04-20T10:27:19.349Z,100.00
2023-04-20T10:32:28.958Z,100.00
2023-04-20T10:37:32.022Z,100.00
2023-04-20T10:42:43.849Z,100.00
2023-04-20T10:47:45.951Z,100.00
2023-04-20T10:52:49.718Z,96.55
2023-04-20T10:57:54.085Z,94.90
2023-04-20T11:02:57.175Z,92.71
2023-04-20T11:08:01.432Z,91.49
2023-04-20T11:13:05.483Z,90.45
2023-04-20T11:18:08.589Z,90.21
2023-04-20T11:23:12.539Z,89.50
2023-04-20T11:28:17.098Z,89.47
2023-04-20T11:33:29.313Z,89.04
2023-04-20T11:38:33.002Z,89.18
2023-04-20T11:43:38.397Z,89.98
2023-04-20T11:48:40.259Z,91.12
2023-04-20T11:53:46.701Z,91.29
2023-04-20T11:58:50.933Z,90.66
2023-04-20T12:03:55.638Z,90.60
2023-04-20T12:08:57.957Z,88.70
2023-04-20T12:14:02.047Z,86.34
2023-04-20T12:19:05.960Z,85.99
2023-04-20T12:24:07.928Z,85.59
2023-04-20T12:29:12.904Z,85.42
2023-04-20T12:34:19.289Z,83.85
2023-04-20T12:39:21.902Z,82.88
2023-04-20T12:44:26.661Z,79.71
2023-04-20T12:49:33.159Z,76.14
2023-04-20T12:54:35.466Z,75.47
2023-04-20T12:59:39.689Z,76.86
2023-04-20T13:04:41.609Z,77.25
2023-04-20T13:09:43.665Z,77.19
2023-04-20T13:14:47.662Z,77.48
2023-04-20T13:19:49.839Z,77.14
2023-04-20T13:24:53.749Z,77.48
2023-04-20T13:29:55.777Z,78.51
2023-04-20T13:34:58.113Z,78.93
2023-04-20T13:40:00.398Z,80.14
2023-04-20T13:45:02.500Z,81.03
2023-04-20T13:50:06.941Z,82.48
2023-04-20T13:55:09.314Z,84.61
2023-04-20T14:00:11.628Z,86.38
2023-04-20T14:05:15.680Z,87.10
2023-04-20T14:10:17.399Z,88.51
2023-04-20T14:15:21.914Z,89.95
2023-04-20T14:20:23.882Z,90.32
2023-04-20T14:25:28.209Z,89.82
2023-04-20T14:30:32.423Z,90.57
2023-04-20T14:35:34.322Z,90.64
2023-04-20T14:40:38.427Z,90.94
2023-04-20T14:45:45.633Z,91.04
2023-04-20T14:50:49.612Z,92.96
2023-04-20T14:55:51.458Z,94.12
2023-04-20T15:00:54.694Z,95.00
2023-04-20T15:06:00.787Z,95.75
2023-04-20T15:11:09.864Z,96.25
2023-04-20T15:16:11.917Z,96.93
2023-04-20T15:21:16.111Z,96.59
2023-04-20T15:26:20.984Z,97.51
2023-04-20T15:31:22.811Z,96.84
2023-04-20T15:36:24.630Z,96.79
2023-04-20T15:41:28.661Z,97.35
2023-04-20T15:46:30.527Z,96.47
2023-04-20T15:51:32.455Z,96.28
2023-04-20T15:56:34.193Z,96.31
2023-04-20T16:01:38.413Z,95.70
2023-04-20T16:06:42.330Z,96.01
2023-04-20T16:11:44.191Z,95.18
2023-04-20T16:16:46.061Z,95.75
2023-04-20T16:21:50.321Z,95.22
2023-04-20T16:26:56.772Z,95.45
2023-04-20T16:31:58.609Z,94.75
2023-04-20T16:37:02.553Z,95.06
2023-04-20T16:42:08.688Z,95.88
2023-04-20T16:47:10.524Z,95.68
2023-04-20T16:52:12.322Z,95.22
2023-04-20T16:57:17.512Z,95.83
2023-04-20T17:02:21.753Z,96.67
2023-04-20T17:07:23.879Z,97.15
2023-04-20T17:12:30.393Z,97.80
2023-04-20T17:17:32.881Z,98.60
2023-04-20T17:22:35.535Z,98.49
2023-04-20T17:27:37.250Z,98.88
2023-04-20T17:32:39.100Z,98.92
2023-04-20T17:37:43.140Z,97.21
2023-04-20T17:42:47.476Z,99.00
2023-04-20T17:47:53.549Z,100.00
2023-04-20T17:52:55.624Z,100.00
2023-04-20T17:57:57.373Z,100.00
2023-04-20T18:03:01.433Z,100.00
2023-04-20T18:08:06.697Z,100.00
2023-04-20T18:13:11.940Z,100.00
2023-04-20T18:18:13.860Z,100.00
2023-04-20T18:23:15.742Z,100.00
2023-04-20T18:28:17.675Z,100.00
2023-04-20T18:33:24.392Z,100.00
2023-04-20T18:38:26.062Z,100.00
2023-04-20T18:43:32.538Z,100.00
2023-04-20T18:48:34.291Z,100.00
2023-04-20T18:53:38.511Z,100.00
2023-04-20T18:58:40.257Z,100.00
2023-04-20T19:03:45.517Z,100.00
2023-04-20T19:08:55.300Z,100.00
2023-04-20T19:13:57.204Z,100.00
2023-04-20T19:18:59.545Z,100.00
2023-04-20T19:24:03.743Z,100.00
2023-04-20T19:29:08.676Z,100.00
2023-04-20T19:34:13.486Z,100.00
2023-04-20T19:39:20.456Z,100.00
2023-04-20T19:44:24.625Z,100.00
2023-04-20T19:49:26.928Z,100.00
2023-04-20T19:54:28.691Z,100.00
2023-04-20T19:59:32.769Z,100.00
2023-04-20T20:04:38.045Z,100.00
2023-04-20T20:09:44.913Z,100.00
2023-04-20T20:14:46.636Z,100.00
2023-04-20T20:19:53.782Z,100.00
2023-04-20T20:25:01.205Z,100.00
2023-04-20T20:30:08.144Z,100.00
2023-04-20T20:35:11.640Z,100.00
2023-04-20T20:40:16.661Z,100.00
2023-04-20T20:45:18.480Z,100.00
2023-04-20T20:50:20.795Z,100.00
2023-04-20T20:55:22.546Z,100.00
2023-04-20T21:00:24.474Z,100.00
2023-04-20T21:05:26.174Z,100.00
2023-04-20T21:10:27.897Z,100.00
2023-04-20T21:15:34.194Z,100.00
2023-04-20T21:20:35.869Z,100.00
2023-04-20T21:25:37.618Z,100.00
2023-04-20T21:30:39.359Z,100.00
2023-04-20T21:35:43.312Z,100.00
2023-04-20T21:40:45.033Z,100.00
2023-04-20T21:45:46.720Z,100.00
2023-04-20T21:50:48.481Z,100.00
2023-04-20T21:55:52.415Z,100.00
2023-04-20T22:00:54.091Z,100.00
2023-04-20T22:05:58.994Z,100.00
2023-04-20T22:11:00.722Z,100.00
2023-04-20T22:16:05.050Z,100.00
2023-04-20T22:21:09.162Z,100.00
2023-04-20T22:26:10.893Z,100.00
2023-04-20T22:31:14.974Z,100.00
2023-04-20T22:36:20.367Z,100.00
2023-04-20T22:41:22.124Z,100.00
2023-04-20T22:46:23.789Z,100.00
2023-04-20T22:51:29.047Z,100.00
2023-04-20T22:56:35.539Z,100.00
2023-04-20T23:01:42.912Z,100.00
2023-04-20T23:06:47.298Z,100.00
2023-04-20T23:11:49.075Z,100.00
2023-04-20T23:16:51.089Z,100.00
2023-04-20T23:21:55.229Z,100.00
2023-04-20T23:27:00.278Z,100.00
2023-04-20T23:32:04.215Z,100.00
2023-04-20T23:37:08.130Z,100.00
2023-04-20T23:42:12.010Z,100.00
2023-04-20T23:47:17.600Z,100.00
2023-04-20T23:52:19.268Z,100.00
2023-04-20T23:57:23.005Z,100.00
